Terminal Aerodrome Forecast
Issued by NWS

Home | Current Version | Previous Version | Text Only | Print | Product List | Glossary On
Versions: 1 2 3 4 5 6 7 8 9 10 11 12 13
128
FTAK31 PAJN 072323
TAFAJN
TAF
PAJN 072323Z 0800/0824 VRB05KT P6SM -SHRASN FEW009 BKN035 OVC060
     FM080700 VRB05KT 6SM BR VCSH FEW005 SCT025 BKN060
     FM081500 VRB04KT P6SM FEW010 FEW030 BKN060
     FM082200 09005KT P6SM VCSH FEW030 OVC060=

USA.gov is the U.S. government's official web portal to all federal, state and local government web resources and services.